Sea Otter — WDJ5069 — position and weather

sailwx.info

Track history (hours):
 
Tides and Currents Weather Stations Pressure Air Temp Water Temp Dewpoint Dewpoint Depression Visibility Wind Speed Wind Dir Waves Ship Positions

Sea Otter

Owner: JFRI Boating LLC, Bothell, WA. More information available from US FCC via Universal Licensing System and Coast Guard Vessel Documentation Center.

Last reported at 2018-Jul-10 19:56 UTC. Time now 2018-Jul-17 22:32 UTC.
Position N 47°55' W 122°21'.

Length 21 m.

Type: Pleasure craft. MMSI: 367783970.

Date/timePositionNaut miles runAvg speedWind from/ knotsBaromVisibWave heightAir tempDewpointWater temp
2018-Jul-10 19:56N 47°55' W 122°21'4014.2
2018-Jul-10 17:08N 48°31' W 122°46'213.4
2018-Jul-10 17:00N 48°32' W 122°49'8 0.4
2018-Jul-09 19:16N 48°34' W 123°01'1 5.1
2018-Jul-09 18:59N 48°32' W 123°01'0 0.1
2018-Jul-09 18:29N 48°32' W 123°01'0 0.0
2018-Jul-09 17:59N 48°32' W 123°01'0 0.1
2018-Jul-09 17:26N 48°32' W 123°01'0 0.1
2018-Jul-09 16:59N 48°32' W 123°01'0 0.0
2018-Jul-09 16:29N 48°32' W 123°01'0 0.0
2018-Jul-09 15:59N 48°32' W 123°01'0 0.1
2018-Jul-09 15:29N 48°32' W 123°01'0 0.0
2018-Jul-09 14:56N 48°32' W 123°01'0 0.0
2018-Jul-09 14:26N 48°32' W 123°01'0 0.0
2018-Jul-09 13:59N 48°32' W 123°01'0 0.1
2018-Jul-09 13:29N 48°32' W 123°01'0 0.1
2018-Jul-09 12:56N 48°32' W 123°01'0 0.0
2018-Jul-09 12:29N 48°32' W 123°01'0 0.0
2018-Jul-09 11:56N 48°32' W 123°01'0 0.0
2018-Jul-09 11:29N 48°32' W 123°01'0 0.0
2018-Jul-09 10:59N 48°32' W 123°01'0 0.0
2018-Jul-09 10:29N 48°32' W 123°01'0 0.0
2018-Jul-09 09:59N 48°32' W 123°01'0 0.1
2018-Jul-09 09:29N 48°32' W 123°01'0 0.1
2018-Jul-09 08:59N 48°32' W 123°01'0 0.0
2018-Jul-09 08:29N 48°32' W 123°01'0 0.0
2018-Jul-09 07:59N 48°32' W 123°01'0 0.0
2018-Jul-09 07:29N 48°32' W 123°01'0 0.1
2018-Jul-09 06:59N 48°32' W 123°01'0 0.0
2018-Jul-09 06:14N 48°32' W 123°01'0 0.0
2018-Jul-09 05:50N 48°32' W 123°01'0 0.0
2018-Jul-09 05:26N 48°32' W 123°01'0 0.0
2018-Jul-09 04:59N 48°32' W 123°01'0 0.1
2018-Jul-09 04:26N 48°32' W 123°01'0 0.0
2018-Jul-09 03:59N 48°32' W 123°01'0 0.1
2018-Jul-09 03:29N 48°32' W 123°01'0 0.1
2018-Jul-09 02:59N 48°32' W 123°01'0 0.0
2018-Jul-09 02:29N 48°32' W 123°01'0 0.0
2018-Jul-09 01:59N 48°32' W 123°01'0 0.1
2018-Jul-09 01:26N 48°32' W 123°01'0 0.1
2018-Jul-09 00:59N 48°32' W 123°01'0 0.1
2018-Jul-09 00:26N 48°32' W 123°01'0 0.0
2018-Jul-08 23:59N 48°32' W 123°01'0 0.1
2018-Jul-08 23:29N 48°32' W 123°01'0 0.0
2018-Jul-08 22:59N 48°32' W 123°01'0 0.0
2018-Jul-08 22:29N 48°32' W 123°01'0 0.0
2018-Jul-08 21:50N 48°32' W 123°01'0 0.5
2018-Jul-08 21:29N 48°32' W 123°01'12 0.2
2018-Jul-06 18:03N 48°37' W 122°44'112.1
2018-Jul-06 17:59N 48°37' W 122°44'6 0.1
2018-Jul-04 14:27N 48°32' W 122°48'6 0.4
2018-Jul-04 00:31N 48°35' W 122°56'0 0.0
2018-Jul-03 22:55N 48°35' W 122°56'0 0.0
2018-Jul-03 22:28N 48°35' W 122°56'0 0.0
2018-Jul-03 21:46N 48°35' W 122°56'15 4.9
2018-Jul-03 18:41N 48°44' W 123°15'1 7.3
2018-Jul-03 18:29N 48°45' W 123°17'8 9.1
2018-Jul-03 17:37N 48°51' W 123°22'2 0.8
2018-Jul-03 14:49N 48°53' W 123°24'0 0.0
2018-Jul-03 04:31N 48°53' W 123°24'0 0.0
2018-Jul-02 19:07N 48°53' W 123°24'0 0.1
2018-Jul-02 18:56N 48°53' W 123°24'4 0.7
2018-Jul-02 12:51N 48°51' W 123°29'16 0.6
2018-Jul-01 08:39N 48°48' W 123°06'18 1.7
2018-Jun-30 21:55N 48°36' W 122°45'  
Track history (hours):
 
Tides and Currents Weather Stations Pressure Air Temp Water Temp Dewpoint Dewpoint Depression Visibility Wind Speed Wind Dir Waves Ship Positions

Sea Otter

Owner: JFRI Boating LLC, Bothell, WA. More information available from US FCC via Universal Licensing System and Coast Guard Vessel Documentation Center.

Last reported at 2018-Jul-10 19:56 UTC. Time now 2018-Jul-17 22:32 UTC.
Position N 47°55' W 122°21'.

Length 21 m.

Type: Pleasure craft. MMSI: 367783970.

Date/timePositionNaut miles runAvg speedWind from/ knotsBaromVisibWave heightAir tempDewpointWater temp
2018-Jul-10 19:56N 47°55' W 122°21'4014.2
2018-Jul-10 17:08N 48°31' W 122°46'213.4
2018-Jul-10 17:00N 48°32' W 122°49'8 0.4
2018-Jul-09 19:16N 48°34' W 123°01'1 5.1
2018-Jul-09 18:59N 48°32' W 123°01'0 0.1
2018-Jul-09 18:29N 48°32' W 123°01'0 0.0
2018-Jul-09 17:59N 48°32' W 123°01'0 0.1
2018-Jul-09 17:26N 48°32' W 123°01'0 0.1
2018-Jul-09 16:59N 48°32' W 123°01'0 0.0
2018-Jul-09 16:29N 48°32' W 123°01'0 0.0
2018-Jul-09 15:59N 48°32' W 123°01'0 0.1
2018-Jul-09 15:29N 48°32' W 123°01'0 0.0
2018-Jul-09 14:56N 48°32' W 123°01'0 0.0
2018-Jul-09 14:26N 48°32' W 123°01'0 0.0
2018-Jul-09 13:59N 48°32' W 123°01'0 0.1
2018-Jul-09 13:29N 48°32' W 123°01'0 0.1
2018-Jul-09 12:56N 48°32' W 123°01'0 0.0
2018-Jul-09 12:29N 48°32' W 123°01'0 0.0
2018-Jul-09 11:56N 48°32' W 123°01'0 0.0
2018-Jul-09 11:29N 48°32' W 123°01'0 0.0
2018-Jul-09 10:59N 48°32' W 123°01'0 0.0
2018-Jul-09 10:29N 48°32' W 123°01'0 0.0
2018-Jul-09 09:59N 48°32' W 123°01'0 0.1
2018-Jul-09 09:29N 48°32' W 123°01'0 0.1
2018-Jul-09 08:59N 48°32' W 123°01'0 0.0
2018-Jul-09 08:29N 48°32' W 123°01'0 0.0
2018-Jul-09 07:59N 48°32' W 123°01'0 0.0
2018-Jul-09 07:29N 48°32' W 123°01'0 0.1
2018-Jul-09 06:59N 48°32' W 123°01'0 0.0
2018-Jul-09 06:14N 48°32' W 123°01'0 0.0
2018-Jul-09 05:50N 48°32' W 123°01'0 0.0
2018-Jul-09 05:26N 48°32' W 123°01'0 0.0
2018-Jul-09 04:59N 48°32' W 123°01'0 0.1
2018-Jul-09 04:26N 48°32' W 123°01'0 0.0
2018-Jul-09 03:59N 48°32' W 123°01'0 0.1
2018-Jul-09 03:29N 48°32' W 123°01'0 0.1
2018-Jul-09 02:59N 48°32' W 123°01'0 0.0
2018-Jul-09 02:29N 48°32' W 123°01'0 0.0
2018-Jul-09 01:59N 48°32' W 123°01'0 0.1
2018-Jul-09 01:26N 48°32' W 123°01'0 0.1
2018-Jul-09 00:59N 48°32' W 123°01'0 0.1
2018-Jul-09 00:26N 48°32' W 123°01'0 0.0
2018-Jul-08 23:59N 48°32' W 123°01'0 0.1
2018-Jul-08 23:29N 48°32' W 123°01'0 0.0
2018-Jul-08 22:59N 48°32' W 123°01'0 0.0
2018-Jul-08 22:29N 48°32' W 123°01'0 0.0
2018-Jul-08 21:50N 48°32' W 123°01'0 0.5
2018-Jul-08 21:29N 48°32' W 123°01'12 0.2
2018-Jul-06 18:03N 48°37' W 122°44'112.1
2018-Jul-06 17:59N 48°37' W 122°44'6 0.1
2018-Jul-04 14:27N 48°32' W 122°48'6 0.4
2018-Jul-04 00:31N 48°35' W 122°56'0 0.0
2018-Jul-03 22:55N 48°35' W 122°56'0 0.0
2018-Jul-03 22:28N 48°35' W 122°56'0 0.0
2018-Jul-03 21:46N 48°35' W 122°56'15 4.9
2018-Jul-03 18:41N 48°44' W 123°15'1 7.3
2018-Jul-03 18:29N 48°45' W 123°17'8 9.1
2018-Jul-03 17:37N 48°51' W 123°22'2 0.8
2018-Jul-03 14:49N 48°53' W 123°24'0 0.0
2018-Jul-03 04:31N 48°53' W 123°24'0 0.0
2018-Jul-02 19:07N 48°53' W 123°24'0 0.1
2018-Jul-02 18:56N 48°53' W 123°24'4 0.7
2018-Jul-02 12:51N 48°51' W 123°29'16 0.6
2018-Jul-01 08:39N 48°48' W 123°06'18 1.7
2018-Jun-30 21:55N 48°36' W 122°45'  

Dump ship's entire track history